createdAt,value
2022-11-05T00:02:03.074Z,89.58
2022-11-05T00:07:33.125Z,89.62
2022-11-05T00:12:54.132Z,90.01
2022-11-05T00:17:56.160Z,90.23
2022-11-05T00:23:23.988Z,90.68
2022-11-05T00:28:27.694Z,90.69
2022-11-05T00:33:30.185Z,90.93
2022-11-05T00:38:32.562Z,92.12
2022-11-05T00:43:53.305Z,92.85
2022-11-05T00:49:13.661Z,92.88
2022-11-05T00:54:15.676Z,92.75
2022-11-05T00:59:17.674Z,92.85
2022-11-05T01:04:19.802Z,92.24
2022-11-05T01:09:21.840Z,92.39
2022-11-05T01:14:23.835Z,92.56
2022-11-05T01:19:25.854Z,93.37
2022-11-05T01:24:28.024Z,93.43
2022-11-05T01:29:30.054Z,93.87
2022-11-05T01:34:32.098Z,94.12
2022-11-05T01:39:34.124Z,94.38
2022-11-05T01:44:57.107Z,95.18
2022-11-05T01:50:07.756Z,95.39
2022-11-05T01:55:10.240Z,95.42
2022-11-05T02:00:12.934Z,95.87
2022-11-05T02:05:15.770Z,95.91
2022-11-05T02:10:19.115Z,95.15
2022-11-05T02:15:35.212Z,95.87
2022-11-05T02:20:52.176Z,96.22
2022-11-05T02:25:57.225Z,96.02
2022-11-05T02:31:26.280Z,96.18
2022-11-05T02:36:43.437Z,96.20
2022-11-05T02:41:50.912Z,96.48
2022-11-05T02:47:04.825Z,96.95
2022-11-05T02:52:14.269Z,97.10
2022-11-05T02:57:20.791Z,97.46
2022-11-05T03:02:22.979Z,97.57
2022-11-05T03:07:35.378Z,97.75
2022-11-05T03:13:03.484Z,97.73
2022-11-05T03:18:11.408Z,97.63
2022-11-05T03:23:46.015Z,97.47
2022-11-05T03:28:53.131Z,97.41
2022-11-05T03:33:56.759Z,97.53
2022-11-05T03:39:05.063Z,97.35
2022-11-05T03:44:10.010Z,97.71
2022-11-05T03:49:19.109Z,97.32
2022-11-05T03:54:21.707Z,96.99
2022-11-05T03:59:24.538Z,97.26
2022-11-05T04:04:26.557Z,97.25
2022-11-05T04:09:47.182Z,97.01
2022-11-05T04:14:49.213Z,96.65
2022-11-05T04:20:09.835Z,96.22
2022-11-05T04:25:13.746Z,96.58
2022-11-05T04:30:21.551Z,95.55
2022-11-05T04:35:24.455Z,96.11
2022-11-05T04:40:26.898Z,96.32
2022-11-05T04:45:31.688Z,94.68
2022-11-05T04:50:33.978Z,95.67
2022-11-05T04:55:36.023Z,94.08
2022-11-05T05:00:38.158Z,95.50
2022-11-05T05:05:40.242Z,94.72
2022-11-05T05:10:42.286Z,94.25
2022-11-05T05:15:44.288Z,93.50
2022-11-05T05:21:04.652Z,93.53
2022-11-05T05:26:06.712Z,93.37
2022-11-05T05:31:09.226Z,94.00
2022-11-05T05:36:11.696Z,92.93
2022-11-05T05:41:13.819Z,92.70
2022-11-05T05:46:18.078Z,93.14
2022-11-05T05:51:20.187Z,92.14
2022-11-05T05:56:22.275Z,91.12
2022-11-05T06:01:24.438Z,91.23
2022-11-05T06:06:26.633Z,90.59
2022-11-05T06:11:28.796Z,89.99
2022-11-05T06:16:35.796Z,91.13
2022-11-05T06:21:37.997Z,90.33
2022-11-05T06:26:42.898Z,89.87
2022-11-05T06:31:44.972Z,90.04
2022-11-05T06:36:47.028Z,89.62
2022-11-05T06:42:16.478Z,90.46
2022-11-05T06:47:11.548Z,89.93
2022-11-05T06:52:14.858Z,90.70
2022-11-05T06:57:16.900Z,91.10
2022-11-05T07:02:19.165Z,91.27
2022-11-05T07:07:21.235Z,90.90
2022-11-05T07:12:23.301Z,90.50
2022-11-05T07:17:25.379Z,89.60
2022-11-05T07:22:27.441Z,89.30
2022-11-05T07:27:29.429Z,90.30
2022-11-05T07:32:31.439Z,88.81
2022-11-05T07:37:33.475Z,88.23
2022-11-05T07:42:35.495Z,88.06
2022-11-05T07:47:39.160Z,87.46
2022-11-05T07:52:41.444Z,85.95
2022-11-05T07:57:45.088Z,85.55
2022-11-05T08:03:18.222Z,85.88
2022-11-05T08:08:20.790Z,84.64
2022-11-05T08:13:22.791Z,84.56
2022-11-05T08:18:31.314Z,83.42
2022-11-05T08:23:33.563Z,83.76
2022-11-05T08:28:35.588Z,82.66
2022-11-05T08:33:37.654Z,82.71
2022-11-05T08:38:39.709Z,81.14
2022-11-05T08:43:41.753Z,79.66
2022-11-05T08:48:43.769Z,78.26
2022-11-05T08:53:45.878Z,78.82
2022-11-05T08:58:47.945Z,78.00
2022-11-05T09:03:51.923Z,77.61
2022-11-05T09:08:54.142Z,77.99
2022-11-05T09:13:56.210Z,78.49
2022-11-05T09:18:58.298Z,78.90
2022-11-05T09:24:00.563Z,78.76
2022-11-05T09:29:02.580Z,78.57
2022-11-05T09:34:04.591Z,77.51
2022-11-05T09:39:06.713Z,77.24
2022-11-05T09:44:15.849Z,76.86
2022-11-05T09:49:26.394Z,75.14
2022-11-05T09:54:33.506Z,73.97
2022-11-05T09:59:50.670Z,73.89
2022-11-05T10:04:56.807Z,73.31
2022-11-05T10:10:04.645Z,71.70
2022-11-05T10:15:13.140Z,73.00
2022-11-05T10:20:38.936Z,68.60
2022-11-05T10:26:09.320Z,67.40
2022-11-05T10:31:14.812Z,62.37
2022-11-05T10:36:32.131Z,63.85
2022-11-05T10:41:44.816Z,67.38
2022-11-05T10:47:12.312Z,68.17
2022-11-05T10:52:26.694Z,67.47
2022-11-05T10:57:35.743Z,69.05
2022-11-05T11:02:37.848Z,68.94
2022-11-05T11:07:40.962Z,67.02
2022-11-05T11:12:43.559Z,65.07
2022-11-05T11:17:45.664Z,63.61
2022-11-05T11:23:14.408Z,64.38
2022-11-05T11:28:29.555Z,64.31
2022-11-05T11:33:33.656Z,63.45
2022-11-05T11:38:37.138Z,61.46
2022-11-05T11:43:42.244Z,56.58
2022-11-05T11:48:47.654Z,53.66
2022-11-05T11:53:49.904Z,59.73
2022-11-05T11:58:54.012Z,62.24
2022-11-05T12:04:28.695Z,63.17
2022-11-05T12:10:04.411Z,63.43
2022-11-05T12:15:15.645Z,65.45
2022-11-05T12:20:32.914Z,66.85
2022-11-05T12:26:04.403Z,66.34
2022-11-05T12:31:26.218Z,67.34
2022-11-05T12:36:40.304Z,67.79
2022-11-05T12:41:49.223Z,68.08
2022-11-05T12:47:03.329Z,67.48
2022-11-05T12:52:24.326Z,67.50
2022-11-05T12:57:29.612Z,68.35
2022-11-05T13:02:59.758Z,68.77
2022-11-05T13:08:09.274Z,69.59
2022-11-05T13:13:30.238Z,69.95
2022-11-05T13:19:04.785Z,70.10
2022-11-05T13:24:23.615Z,70.52
2022-11-05T13:29:34.595Z,70.92
2022-11-05T13:34:37.868Z,71.09
2022-11-05T13:40:11.067Z,71.18
2022-11-05T13:45:21.911Z,71.31
2022-11-05T13:50:30.556Z,71.27
2022-11-05T13:55:56.287Z,71.56
2022-11-05T14:01:36.854Z,71.93
2022-11-05T14:06:39.105Z,71.67
2022-11-05T14:11:48.095Z,70.93
2022-11-05T14:17:14.142Z,70.93
2022-11-05T14:22:37.686Z,71.79
2022-11-05T14:27:39.742Z,71.98
2022-11-05T14:32:45.912Z,72.64
2022-11-05T14:37:54.168Z,72.73
2022-11-05T14:42:59.800Z,72.80
2022-11-05T14:48:07.239Z,72.30
2022-11-05T14:53:37.693Z,72.19
2022-11-05T14:58:41.513Z,72.84
2022-11-05T15:04:01.946Z,73.21
2022-11-05T15:09:11.145Z,73.22
2022-11-05T15:14:19.606Z,73.26
2022-11-05T15:19:27.170Z,73.66
2022-11-05T15:24:31.683Z,72.28
2022-11-05T15:29:33.978Z,72.42
2022-11-05T15:34:36.121Z,72.37
2022-11-05T15:39:42.517Z,72.89
2022-11-05T15:44:55.672Z,73.21
2022-11-05T15:50:01.398Z,74.53
2022-11-05T15:55:12.408Z,75.10
2022-11-05T16:00:29.019Z,75.46
2022-11-05T16:05:35.277Z,76.07
2022-11-05T16:10:39.126Z,75.59
2022-11-05T16:15:53.891Z,75.89
2022-11-05T16:21:18.271Z,75.57
2022-11-05T16:27:01.761Z,76.53
2022-11-05T16:32:04.142Z,75.76
2022-11-05T16:37:08.477Z,77.77
2022-11-05T16:42:22.646Z,79.03
2022-11-05T16:47:26.375Z,78.76
2022-11-05T16:52:28.657Z,80.67
2022-11-05T16:57:32.097Z,81.52
2022-11-05T17:02:34.323Z,82.87
2022-11-05T17:07:41.216Z,83.32
2022-11-05T17:12:45.546Z,85.13
2022-11-05T17:17:48.224Z,85.35
2022-11-05T17:22:50.286Z,85.96
2022-11-05T17:27:52.670Z,86.30
2022-11-05T17:32:54.895Z,87.44
2022-11-05T17:37:57.231Z,88.23
2022-11-05T17:42:59.316Z,88.68
2022-11-05T17:48:03.348Z,89.52
2022-11-05T17:53:05.470Z,89.74
2022-11-05T17:58:07.610Z,89.77
2022-11-05T18:03:11.159Z,89.99
2022-11-05T18:08:13.575Z,89.82
2022-11-05T18:13:15.843Z,89.58
2022-11-05T18:18:18.166Z,89.94
2022-11-05T18:23:21.300Z,90.25
2022-11-05T18:28:23.374Z,90.66
2022-11-05T18:33:25.507Z,90.88
2022-11-05T18:38:27.596Z,91.55
2022-11-05T18:43:29.601Z,91.91
2022-11-05T18:48:32.597Z,91.99
2022-11-05T18:53:34.643Z,92.42
2022-11-05T18:58:38.759Z,92.64
2022-11-05T19:03:41.125Z,92.91
2022-11-05T19:08:44.181Z,92.83
2022-11-05T19:13:46.407Z,93.12
2022-11-05T19:18:49.367Z,93.37
2022-11-05T19:23:52.507Z,93.36
2022-11-05T19:28:54.587Z,93.65
2022-11-05T19:33:56.941Z,94.00
2022-11-05T19:39:09.711Z,93.89
2022-11-05T19:44:11.743Z,94.04
2022-11-05T19:49:13.825Z,94.26
2022-11-05T19:54:15.899Z,94.41
2022-11-05T19:59:17.970Z,94.32
2022-11-05T20:04:19.972Z,94.40
2022-11-05T20:09:23.141Z,94.36
2022-11-05T20:14:26.611Z,94.57
2022-11-05T20:19:28.668Z,94.58
2022-11-05T20:24:30.953Z,94.75
2022-11-05T20:29:35.548Z,94.63
2022-11-05T20:34:38.127Z,94.74
2022-11-05T20:39:40.237Z,95.85
2022-11-05T20:44:43.633Z,95.86
2022-11-05T20:49:45.706Z,95.63
2022-11-05T20:54:48.026Z,95.28
2022-11-05T20:59:50.047Z,95.29
2022-11-05T21:04:52.092Z,95.18
2022-11-05T21:09:54.240Z,94.95
2022-11-05T21:14:56.421Z,95.06
2022-11-05T21:19:58.634Z,94.96
2022-11-05T21:25:00.710Z,94.79
2022-11-05T21:30:03.390Z,94.68
2022-11-05T21:35:05.904Z,95.07
2022-11-05T21:40:08.629Z,95.29
2022-11-05T21:45:11.182Z,95.60
2022-11-05T21:50:15.205Z,95.82
2022-11-05T21:55:38.062Z,95.73
2022-11-05T22:00:40.114Z,96.05
2022-11-05T22:05:42.172Z,96.47
2022-11-05T22:10:44.223Z,96.63
2022-11-05T22:15:55.420Z,96.68
2022-11-05T22:20:57.457Z,96.53
2022-11-05T22:26:01.038Z,96.48
2022-11-05T22:31:03.112Z,96.49
2022-11-05T22:36:05.457Z,96.34
2022-11-05T22:41:08.521Z,96.40
2022-11-05T22:46:13.267Z,96.35
2022-11-05T22:51:18.722Z,96.24
2022-11-05T22:56:28.966Z,96.16
2022-11-05T23:01:31.396Z,96.27
2022-11-05T23:06:52.818Z,96.15
2022-11-05T23:11:57.345Z,95.88
2022-11-05T23:17:18.277Z,95.94
2022-11-05T23:22:43.792Z,95.89
2022-11-05T23:27:49.096Z,95.82
2022-11-05T23:32:52.581Z,95.64
2022-11-05T23:38:13.430Z,95.58
2022-11-05T23:43:34.360Z,95.61
2022-11-05T23:48:37.918Z,95.68
2022-11-05T23:53:41.314Z,95.46
2022-11-05T23:58:43.642Z,95.36
